createdAt,value
2022-10-19T00:01:41.286Z,74.04
2022-10-19T04:34:37.754Z,52.41
2022-10-19T05:49:03.245Z,48.95
2022-10-19T05:51:49.300Z,49.54
2022-10-19T05:54:28.691Z,49.50
2022-10-19T05:57:14.030Z,50.42
2022-10-19T06:00:01.017Z,51.39
2022-10-19T06:02:40.699Z,51.19
2022-10-19T06:05:25.013Z,52.07
2022-10-19T06:08:16.000Z,50.57
2022-10-19T06:10:54.137Z,50.30
2022-10-19T06:13:43.701Z,49.31
2022-10-19T06:16:34.030Z,48.77
2022-10-19T06:19:21.415Z,49.11
2022-10-19T06:22:24.946Z,50.46
2022-10-19T06:25:39.768Z,50.40
2022-10-19T06:28:26.701Z,50.79
2022-10-19T06:31:07.211Z,51.69
2022-10-19T06:33:52.580Z,51.72
2022-10-19T06:36:31.016Z,52.07
2022-10-19T06:39:34.894Z,52.09
2022-10-19T06:42:16.800Z,51.93
2022-10-19T06:44:58.851Z,52.67
2022-10-19T06:48:07.631Z,52.20
2022-10-19T06:50:59.459Z,52.82
2022-10-19T06:53:40.376Z,53.52
2022-10-19T06:56:22.867Z,53.17
2022-10-19T06:59:14.085Z,54.05
2022-10-19T07:02:03.331Z,54.25
2022-10-19T07:04:39.992Z,54.55
2022-10-19T07:07:32.797Z,54.80
2022-10-19T07:10:19.633Z,54.32
2022-10-19T07:16:04.581Z,56.11
2022-10-19T07:18:47.850Z,55.92
2022-10-19T07:21:30.103Z,55.99
2022-10-19T07:24:13.437Z,56.96
2022-10-19T07:27:05.100Z,57.32
2022-10-19T07:29:46.955Z,57.72
2022-10-19T07:35:33.098Z,58.04
2022-10-19T07:38:11.934Z,57.87
2022-10-19T07:41:05.253Z,58.00
2022-10-19T07:43:45.714Z,58.51
2022-10-19T07:46:28.895Z,58.89
2022-10-19T07:49:08.931Z,59.42
2022-10-19T07:51:51.684Z,59.70
2022-10-19T07:54:58.300Z,60.12
2022-10-19T07:57:57.993Z,61.13
2022-10-19T08:00:56.196Z,61.76
2022-10-19T08:07:10.485Z,61.72
2022-10-19T08:10:04.060Z,61.80
2022-10-19T08:13:16.861Z,61.99
2022-10-19T08:16:02.222Z,61.50
2022-10-19T08:19:06.115Z,62.07
2022-10-19T08:21:49.852Z,62.42
2022-10-19T08:24:40.943Z,62.71
2022-10-19T08:27:16.242Z,62.98
2022-10-19T08:30:02.904Z,62.84
2022-10-19T08:32:48.954Z,63.12
2022-10-19T08:38:29.401Z,63.02
2022-10-19T08:41:16.990Z,63.34
2022-10-19T08:44:18.238Z,63.50
2022-10-19T08:47:07.985Z,63.65
2022-10-19T08:49:46.359Z,63.62
2022-10-19T08:52:51.129Z,63.54
2022-10-19T08:56:12.414Z,64.09
2022-10-19T08:59:24.934Z,64.05
2022-10-19T09:02:09.238Z,64.46
2022-10-19T09:04:49.854Z,64.32
2022-10-19T09:07:38.342Z,64.94
2022-10-19T09:10:42.511Z,64.73
2022-10-19T09:13:41.619Z,65.13
2022-10-19T09:16:45.235Z,65.26
2022-10-19T09:19:37.797Z,66.03
2022-10-19T09:22:20.111Z,66.55
2022-10-19T09:25:08.726Z,66.59
2022-10-19T09:27:55.771Z,66.19
2022-10-19T09:34:11.049Z,67.08
2022-10-19T09:37:04.095Z,67.21
2022-10-19T09:39:55.627Z,67.35
2022-10-19T09:42:40.970Z,67.36
2022-10-19T09:45:50.113Z,66.91
2022-10-19T09:54:47.957Z,67.51
2022-10-19T10:01:09.643Z,68.30
2022-10-19T10:03:48.040Z,68.48
2022-10-19T10:06:50.302Z,68.98
2022-10-19T10:09:37.934Z,69.46
2022-10-19T10:12:25.414Z,70.04
2022-10-19T10:15:09.610Z,71.26
2022-10-19T10:17:49.353Z,72.32
2022-10-19T10:20:35.031Z,72.26
2022-10-19T10:23:29.507Z,72.37
2022-10-19T10:26:09.353Z,72.62
2022-10-19T10:29:14.815Z,73.24
2022-10-19T10:32:15.612Z,73.29
2022-10-19T10:38:18.959Z,72.81
2022-10-19T10:44:13.269Z,73.64
2022-10-19T10:47:02.659Z,74.18
2022-10-19T10:49:49.159Z,74.55
2022-10-19T11:02:09.214Z,76.51
2022-10-19T11:04:52.275Z,76.38
2022-10-19T11:07:43.352Z,77.04
2022-10-19T11:10:31.019Z,76.89
2022-10-19T11:13:24.411Z,76.83
2022-10-19T11:16:17.688Z,76.92
2022-10-19T11:22:20.338Z,76.77
2022-10-19T11:25:27.319Z,77.04
2022-10-19T11:28:24.349Z,77.21
2022-10-19T11:31:26.383Z,77.15
2022-10-19T11:34:18.651Z,77.59
2022-10-19T11:37:06.850Z,77.96
2022-10-19T11:40:06.031Z,77.87
2022-10-19T11:42:57.128Z,78.05
2022-10-19T11:45:54.983Z,78.21
2022-10-19T11:49:10.489Z,78.60
2022-10-19T11:52:05.544Z,78.45
2022-10-19T11:55:10.853Z,78.52
2022-10-19T11:58:03.040Z,78.01
2022-10-19T12:01:12.002Z,78.40
2022-10-19T12:04:39.108Z,79.01
2022-10-19T12:08:09.479Z,78.95
2022-10-19T12:19:15.955Z,78.88
2022-10-19T12:22:21.889Z,79.24
2022-10-19T12:25:14.414Z,79.29
2022-10-19T12:31:01.529Z,79.54
2022-10-19T12:33:50.140Z,79.28
2022-10-19T12:37:02.751Z,79.73
2022-10-19T12:43:09.127Z,79.55
2022-10-19T12:46:28.762Z,79.70
2022-10-19T12:49:45.972Z,79.68
2022-10-19T12:53:09.698Z,80.47
2022-10-19T12:56:02.563Z,80.92
2022-10-19T12:58:55.010Z,82.07
2022-10-19T13:01:47.868Z,82.22
2022-10-19T13:11:19.355Z,82.03
2022-10-19T13:14:10.199Z,83.02
2022-10-19T13:17:01.584Z,82.73
2022-10-19T13:22:48.635Z,83.39
2022-10-19T13:25:32.001Z,82.65
2022-10-19T13:28:59.812Z,82.24
2022-10-19T13:31:49.991Z,82.57
2022-10-19T13:37:38.886Z,83.27
2022-10-19T13:40:38.610Z,83.13
2022-10-19T13:43:26.251Z,83.36
2022-10-19T13:46:18.645Z,82.77
2022-10-19T13:49:39.715Z,82.29
2022-10-19T13:53:14.890Z,82.61
2022-10-19T13:56:05.460Z,82.32
2022-10-19T13:59:35.535Z,82.29
2022-10-19T14:03:02.939Z,82.26
2022-10-19T14:06:28.368Z,82.28
2022-10-19T14:09:28.396Z,82.46
2022-10-19T14:12:16.880Z,83.47
2022-10-19T14:14:55.469Z,83.32
2022-10-19T14:17:38.196Z,83.36
2022-10-19T14:20:44.979Z,82.90
2022-10-19T14:23:37.906Z,82.59
2022-10-19T14:26:32.758Z,82.36
2022-10-19T14:29:13.230Z,82.69
2022-10-19T14:32:09.188Z,83.04
2022-10-19T14:35:01.312Z,82.62
2022-10-19T14:37:49.512Z,82.72
2022-10-19T14:40:36.460Z,83.01
2022-10-19T14:43:29.489Z,83.41
2022-10-19T14:46:25.871Z,83.88
2022-10-19T14:49:10.537Z,83.97
2022-10-19T14:52:03.719Z,84.16
2022-10-19T14:54:49.254Z,84.24
2022-10-19T14:57:45.876Z,84.38
2022-10-19T15:03:18.586Z,84.65
2022-10-19T15:05:58.590Z,85.09
2022-10-19T15:08:58.650Z,85.06
2022-10-19T15:14:41.961Z,85.32
2022-10-19T15:17:43.431Z,85.73
2022-10-19T15:21:11.748Z,84.88
2022-10-19T15:23:52.339Z,84.51
2022-10-19T15:26:44.698Z,84.74
2022-10-19T15:29:38.209Z,85.26
2022-10-19T15:32:34.326Z,84.77
2022-10-19T15:35:28.700Z,85.23
2022-10-19T15:38:08.751Z,85.27
2022-10-19T15:40:54.130Z,85.49
2022-10-19T15:44:00.571Z,85.42
2022-10-19T15:46:42.828Z,84.97
2022-10-19T15:50:10.003Z,85.25
2022-10-19T15:52:50.762Z,85.38
2022-10-19T15:55:26.680Z,85.79
2022-10-19T15:58:22.244Z,85.99
2022-10-19T16:01:08.654Z,86.65
2022-10-19T16:04:04.654Z,86.78
2022-10-19T16:06:51.074Z,86.60
2022-10-19T16:09:41.583Z,86.45
2022-10-19T16:12:30.876Z,86.37
2022-10-19T16:15:21.143Z,86.11
2022-10-19T16:18:03.179Z,86.48
2022-10-19T16:21:13.062Z,86.76
2022-10-19T16:23:57.602Z,87.11
2022-10-19T16:26:49.466Z,87.27
2022-10-19T16:29:32.353Z,87.72
2022-10-19T16:32:18.311Z,87.29
2022-10-19T16:34:58.144Z,87.09
2022-10-19T16:37:49.086Z,87.79
2022-10-19T16:40:42.718Z,87.97
2022-10-19T16:43:27.038Z,88.21
2022-10-19T16:46:12.166Z,88.83
2022-10-19T16:48:58.164Z,88.78
2022-10-19T16:51:46.732Z,88.67
2022-10-19T16:54:40.185Z,88.19
2022-10-19T17:00:17.705Z,88.42
2022-10-19T17:03:09.086Z,88.46
2022-10-19T17:05:53.415Z,88.82
2022-10-19T17:12:20.701Z,88.52
2022-10-19T17:15:42.459Z,88.94
2022-10-19T17:18:21.224Z,89.29
2022-10-19T17:24:03.587Z,89.11
2022-10-19T17:27:05.898Z,89.88
2022-10-19T17:30:10.860Z,90.10
2022-10-19T17:32:48.962Z,90.12
2022-10-19T17:35:26.327Z,89.67
2022-10-19T17:38:21.574Z,89.87
2022-10-19T17:40:59.156Z,90.37
2022-10-19T17:43:45.498Z,89.91
2022-10-19T17:46:23.119Z,90.17
2022-10-19T17:49:06.594Z,89.48
2022-10-19T17:52:20.847Z,89.63
2022-10-19T17:55:18.737Z,88.94
2022-10-19T17:58:01.959Z,89.48
2022-10-19T18:00:39.673Z,89.26
2022-10-19T18:06:13.362Z,88.84
2022-10-19T18:08:55.160Z,88.93
2022-10-19T18:11:37.814Z,89.16
2022-10-19T18:17:10.178Z,88.94
2022-10-19T18:19:56.537Z,89.32
2022-10-19T18:22:51.032Z,89.18
2022-10-19T18:25:49.325Z,89.21
2022-10-19T18:28:38.309Z,89.28
2022-10-19T18:31:19.267Z,89.34
2022-10-19T18:34:14.789Z,89.53
2022-10-19T18:37:17.595Z,89.75
2022-10-19T18:40:02.600Z,90.18
2022-10-19T18:42:46.246Z,90.22
2022-10-19T18:48:37.792Z,89.80
2022-10-19T18:54:28.201Z,90.06
2022-10-19T18:57:22.169Z,89.50
2022-10-19T19:00:01.553Z,89.88
2022-10-19T19:02:47.360Z,89.75
2022-10-19T19:05:33.627Z,89.80
2022-10-19T19:08:22.113Z,90.13
2022-10-19T19:10:59.362Z,90.45
2022-10-19T19:13:52.639Z,90.49
2022-10-19T19:16:43.311Z,90.11
2022-10-19T19:19:41.629Z,89.95
2022-10-19T19:22:28.003Z,90.49
2022-10-19T19:27:55.953Z,90.85
2022-10-19T19:30:48.087Z,90.99
2022-10-19T19:33:31.408Z,90.78
2022-10-19T19:36:20.567Z,91.24
2022-10-19T19:39:08.349Z,91.26
2022-10-19T19:41:45.948Z,91.50
2022-10-19T19:44:24.195Z,91.25
2022-10-19T19:47:10.902Z,91.20
2022-10-19T19:49:55.789Z,91.31
2022-10-19T19:52:32.853Z,91.21
2022-10-19T19:55:29.066Z,91.16
2022-10-19T19:58:15.408Z,91.01
2022-10-19T20:01:04.015Z,90.53
2022-10-19T20:03:53.522Z,90.96
2022-10-19T20:06:42.510Z,90.50
2022-10-19T20:09:21.826Z,90.21
2022-10-19T20:11:57.815Z,90.64
2022-10-19T20:14:42.662Z,90.57
2022-10-19T20:23:33.165Z,91.65
2022-10-19T20:26:15.330Z,91.26
2022-10-19T20:29:04.733Z,91.80
2022-10-19T20:31:49.439Z,92.02
2022-10-19T20:34:30.677Z,91.71
2022-10-19T20:37:14.706Z,91.97
2022-10-19T20:40:23.484Z,91.78
2022-10-19T20:43:03.613Z,92.19
2022-10-19T20:45:47.746Z,92.15
2022-10-19T20:48:31.006Z,92.01
2022-10-19T20:51:22.450Z,91.69
2022-10-19T20:54:19.096Z,91.55
2022-10-19T20:57:11.011Z,91.85
2022-10-19T21:00:04.692Z,92.33
2022-10-19T21:02:45.338Z,91.81
2022-10-19T21:05:22.408Z,92.06
2022-10-19T21:07:59.361Z,91.68
2022-10-19T21:10:38.589Z,91.25
2022-10-19T21:13:17.709Z,91.54
2022-10-19T21:16:10.535Z,91.40
2022-10-19T21:18:57.737Z,91.28
2022-10-19T21:21:35.813Z,90.96
2022-10-19T21:30:28.114Z,90.20
2022-10-19T21:33:05.515Z,90.01
2022-10-19T21:35:45.551Z,90.19
2022-10-19T21:38:30.594Z,90.59
2022-10-19T21:41:25.320Z,90.31
2022-10-19T21:44:21.126Z,90.11
2022-10-19T21:47:07.273Z,89.87
2022-10-19T21:49:46.065Z,89.85
2022-10-19T21:52:25.205Z,89.18
2022-10-19T21:55:10.349Z,89.13
2022-10-19T21:57:49.646Z,88.65
2022-10-19T22:01:26.410Z,88.81
2022-10-19T22:04:24.188Z,88.73
2022-10-19T22:10:00.059Z,88.74
2022-10-19T22:12:36.866Z,88.36
2022-10-19T22:15:16.213Z,88.93
2022-10-19T22:18:05.199Z,88.93
2022-10-19T22:20:47.282Z,88.82
2022-10-19T22:23:27.113Z,88.48
2022-10-19T22:26:13.020Z,88.53
2022-10-19T22:28:51.622Z,88.19
2022-10-19T22:31:38.064Z,87.78
2022-10-19T22:34:26.803Z,87.73
2022-10-19T22:37:18.619Z,87.86
2022-10-19T22:40:08.141Z,88.20
2022-10-19T22:45:56.712Z,87.85
2022-10-19T22:48:49.108Z,88.06
2022-10-19T22:51:34.018Z,88.29
2022-10-19T22:54:13.641Z,88.18
2022-10-19T22:56:52.316Z,87.91
2022-10-19T22:59:32.944Z,88.35
2022-10-19T23:02:13.836Z,88.51
2022-10-19T23:04:54.283Z,88.38
2022-10-19T23:07:40.389Z,88.18
2022-10-19T23:10:27.620Z,87.53
2022-10-19T23:13:12.657Z,87.25
2022-10-19T23:15:58.984Z,86.74
2022-10-19T23:18:40.276Z,86.79
2022-10-19T23:21:22.934Z,86.46
2022-10-19T23:24:24.596Z,86.41
2022-10-19T23:27:05.324Z,85.69
2022-10-19T23:29:51.717Z,84.91
2022-10-19T23:32:31.048Z,84.67
2022-10-19T23:38:10.904Z,84.22
2022-10-19T23:40:58.529Z,84.37
2022-10-19T23:43:55.904Z,83.51
2022-10-19T23:46:39.691Z,82.98
2022-10-19T23:49:24.845Z,82.66
2022-10-19T23:52:28.761Z,82.11
2022-10-19T23:55:13.557Z,79.82
2022-10-19T23:58:17.222Z,78.13
